Weather at South Hill Heliport

Public forecast

Using degrees Fahrenheit for public forecast. Weather courtesy of forecast.io.

Closest aviation weather report (METAR) to South Hill Heliport

Closest report is Salem Municipal Airport/McNary Field, 3.8 nm (7.1 km) NNE. Retrieved 2021/07/27 22:56 UTC (54 minutes ago):

KSLE 272256Z VRB03KT 10SM CLR 31/11 A3001 RMK AO2 SLP161 T03110111

Closest aviation forecast (TAF) to South Hill Heliport

Closest forecast is Salem Municipal Airport/McNary Field, 3.8 nm (7.1 km) NNE. Retrieved 2021/07/27 18:33 UTC (5 hours ago):

TAF KSLE 271730Z 2718/2818 35007KT P6SM FEW100 BKN250 FM280400 VRB03KT P6SM SCT250